Time;durP1;ratioP1;P1;durP2;ratioP2;P2;SDS_P1;SDS_P2;PMS_P1;PMS_P2;Temp;Humidity;BMP_temperature;BMP_pressure;BME280_temperature;BME280_humidity;BME280_pressure;Samples;Min_cycle;Max_cycle;Signal;HPM_P1;HPM_P2
2024/01/07 00:00:10;;;;;;;19.37;10.17;;;;;;;;;;678735;29;1033;-69
2024/01/07 00:00:30;;;;;;;18.35;10.05;;;;;;;;;;681582;29;1065;-68
2024/01/07 00:00:50;;;;;;;17.63;9.47;;;;;;;;;;677921;29;1740;-69
2024/01/07 00:01:11;;;;;;;17.58;9.75;;;;;;;;;;683121;28;980;-68
2024/01/07 00:01:31;;;;;;;17.67;9.53;;;;;;;;;;683246;28;4410;-68
2024/01/07 00:01:52;;;;;;;17.55;9.52;;;;;;;;;;683375;28;1799;-68
2024/01/07 00:02:12;;;;;;;16.53;9.40;;;;;;;;;;684301;28;1151;-69
2024/01/07 00:02:32;;;;;;;16.40;9.57;;;;;;;;;;686593;28;1079;-67
2024/01/07 00:02:52;;;;;;;15.90;9.13;;;;;;;;;;688589;28;2436;-69
2024/01/07 00:03:13;;;;;;;16.13;8.97;;;;;;;;;;689119;28;1197;-68
2024/01/07 00:03:33;;;;;;;15.87;9.03;;;;;;;;;;689571;28;1134;-68
2024/01/07 00:03:53;;;;;;;17.05;9.48;;;;;;;;;;688319;28;1564;-69
2024/01/07 00:04:15;;;;;;;16.30;9.10;;;;;;;;;;689073;28;4412;-68
2024/01/07 00:04:35;;;;;;;15.45;8.73;;;;;;;;;;687064;28;1097;-68
2024/01/07 00:04:58;;;;;;;15.77;8.70;;;;;;;;;;686101;28;2288;-69
2024/01/07 00:05:19;;;;;;;16.17;9.10;;;;;;;;;;683301;28;1410;-68
2024/01/07 00:05:40;;;;;;;15.57;8.63;;;;;;;;;;680300;29;1061;-70
2024/01/07 00:06:00;;;;;;;15.38;8.60;;;;;;;;;;678851;28;1855;-68
2024/01/07 00:06:21;;;;;;;15.67;8.70;;;;;;;;;;681032;28;1356;-69
2024/01/07 00:06:47;;;;;;;15.70;9.20;;;;;;;;;;681704;28;1103;-68
2024/01/07 00:07:08;;;;;;;16.40;9.25;;;;;;;;;;682050;28;1242;-69
2024/01/07 00:07:29;;;;;;;15.67;8.43;;;;;;;;;;682363;28;4394;-69
2024/01/07 00:07:50;;;;;;;15.18;8.40;;;;;;;;;;681865;28;1723;-69
2024/01/07 00:08:11;;;;;;;15.05;8.38;;;;;;;;;;683302;28;1303;-69
2024/01/07 00:08:32;;;;;;;14.93;8.27;;;;;;;;;;683975;28;1174;-69
2024/01/07 00:08:53;;;;;;;16.50;9.00;;;;;;;;;;680634;28;2095;-68
2024/01/07 00:09:14;;;;;;;15.98;9.00;;;;;;;;;;681853;29;1159;-69
2024/01/07 00:09:35;;;;;;;14.73;8.35;;;;;;;;;;677898;29;1128;-70
2024/01/07 00:09:56;;;;;;;14.65;8.20;;;;;;;;;;680312;28;1256;-68
2024/01/07 00:10:21;;;;;;;14.88;8.20;;;;;;;;;;679353;28;4257;-70
2024/01/07 00:10:42;;;;;;;15.13;8.15;;;;;;;;;;680038;28;1131;-69
2024/01/07 00:11:03;;;;;;;14.23;7.82;;;;;;;;;;683487;28;1716;-70
2024/01/07 00:11:24;;;;;;;14.23;8.23;;;;;;;;;;684285;28;1068;-69
2024/01/07 00:11:45;;;;;;;14.27;7.75;;;;;;;;;;685461;28;1079;-71
2024/01/07 00:12:06;;;;;;;14.63;7.93;;;;;;;;;;683116;28;1066;-69
2024/01/07 00:12:27;;;;;;;12.87;7.47;;;;;;;;;;684442;28;1166;-70
2024/01/07 00:12:49;;;;;;;12.77;7.63;;;;;;;;;;684567;28;980;-69
2024/01/07 00:13:10;;;;;;;14.60;8.30;;;;;;;;;;688716;28;1190;-68
2024/01/07 00:13:31;;;;;;;14.30;8.23;;;;;;;;;;690222;28;4241;-68
2024/01/07 00:13:51;;;;;;;12.75;7.30;;;;;;;;;;686930;28;2703;-70
2024/01/07 00:14:12;;;;;;;13.52;7.72;;;;;;;;;;684800;28;1177;-69
2024/01/07 00:14:32;;;;;;;13.43;7.47;;;;;;;;;;684556;28;1099;-70
2024/01/07 00:14:52;;;;;;;12.18;7.03;;;;;;;;;;683442;28;1831;-69
2024/01/07 00:15:13;;;;;;;13.43;7.55;;;;;;;;;;684323;28;1012;-69
2024/01/07 00:15:34;;;;;;;13.70;7.80;;;;;;;;;;684584;28;1051;-69
2024/01/07 00:15:56;;;;;;;12.90;7.43;;;;;;;;;;686385;28;1852;-70
2024/01/07 00:16:16;;;;;;;13.33;7.60;;;;;;;;;;688936;28;4452;-69
2024/01/07 00:16:37;;;;;;;12.43;7.25;;;;;;;;;;688374;28;1962;-68
2024/01/07 00:16:58;;;;;;;12.33;7.20;;;;;;;;;;687014;28;1573;-69
2024/01/07 00:17:18;;;;;;;13.50;7.30;;;;;;;;;;689520;28;856;-68
2024/01/07 00:17:38;;;;;;;13.40;7.23;;;;;;;;;;689580;28;1054;-69
2024/01/07 00:17:59;;;;;;;13.18;7.13;;;;;;;;;;688784;28;2319;-70
2024/01/07 00:18:19;;;;;;;11.90;6.23;;;;;;;;;;690036;28;1108;-70
2024/01/07 00:18:39;;;;;;;11.05;6.10;;;;;;;;;;688279;28;1168;-69
2024/01/07 00:19:00;;;;;;;11.17;6.50;;;;;;;;;;685992;28;1491;-68
2024/01/07 00:19:20;;;;;;;11.93;6.30;;;;;;;;;;686044;28;4272;-69
2024/01/07 00:19:41;;;;;;;11.25;6.28;;;;;;;;;;684441;28;1147;-69
2024/01/07 00:20:01;;;;;;;10.23;5.93;;;;;;;;;;682618;28;1063;-68
2024/01/07 00:20:22;;;;;;;10.87;6.17;;;;;;;;;;684121;28;1272;-68
2024/01/07 00:20:42;;;;;;;10.95;6.53;;;;;;;;;;683439;28;4308;-69
2024/01/07 00:21:03;;;;;;;10.95;6.07;;;;;;;;;;682852;28;1753;-69
2024/01/07 00:21:24;;;;;;;11.10;6.00;;;;;;;;;;684306;28;1056;-69
2024/01/07 00:21:44;;;;;;;10.30;5.70;;;;;;;;;;686714;28;1020;-68
2024/01/07 00:22:04;;;;;;;10.13;5.80;;;;;;;;;;684964;28;2290;-68
2024/01/07 00:22:24;;;;;;;10.50;5.97;;;;;;;;;;686414;28;4614;-69
2024/01/07 00:22:45;;;;;;;11.02;5.93;;;;;;;;;;689492;28;1201;-68
2024/01/07 00:23:05;;;;;;;10.50;5.80;;;;;;;;;;688568;28;2214;-70
2024/01/07 00:23:25;;;;;;;9.95;6.00;;;;;;;;;;689254;28;1094;-68
2024/01/07 00:23:53;;;;;;;9.90;5.90;;;;;;;;;;687459;28;1484;-70
2024/01/07 00:24:14;;;;;;;9.80;5.60;;;;;;;;;;687018;28;1218;-68
2024/01/07 00:24:34;;;;;;;11.20;6.00;;;;;;;;;;687386;28;1213;-68
2024/01/07 00:24:54;;;;;;;9.70;5.70;;;;;;;;;;686225;28;1804;-70
2024/01/07 00:25:15;;;;;;;10.07;5.77;;;;;;;;;;684107;28;4535;-69
2024/01/07 00:25:35;;;;;;;9.80;5.87;;;;;;;;;;684217;28;3144;-70
2024/01/07 00:25:55;;;;;;;9.80;5.73;;;;;;;;;;685844;28;1811;-69
2024/01/07 00:26:15;;;;;;;10.67;5.90;;;;;;;;;;686919;28;1193;-70
2024/01/07 00:26:36;;;;;;;10.65;6.18;;;;;;;;;;687072;28;1249;-68
2024/01/07 00:26:56;;;;;;;10.40;5.90;;;;;;;;;;685687;28;2370;-69
2024/01/07 00:27:17;;;;;;;10.27;5.60;;;;;;;;;;684911;28;1106;-68
2024/01/07 00:27:37;;;;;;;10.27;5.60;;;;;;;;;;683651;28;996;-70
2024/01/07 00:27:58;;;;;;;9.98;5.53;;;;;;;;;;680761;28;1752;-69
2024/01/07 00:28:19;;;;;;;10.30;5.57;;;;;;;;;;681834;28;4392;-70
2024/01/07 00:28:39;;;;;;;10.40;6.27;;;;;;;;;;684428;28;1126;-69
2024/01/07 00:28:59;;;;;;;9.80;5.88;;;;;;;;;;682831;28;1802;-70
2024/01/07 00:29:20;;;;;;;9.87;5.73;;;;;;;;;;684949;28;1174;-70
2024/01/07 00:29:40;;;;;;;10.90;6.20;;;;;;;;;;681639;28;1142;-68
2024/01/07 00:30:00;;;;;;;11.45;6.35;;;;;;;;;;683470;28;1866;-70
2024/01/07 00:30:21;;;;;;;12.30;6.33;;;;;;;;;;684157;28;1056;-68
2024/01/07 00:30:41;;;;;;;10.33;5.80;;;;;;;;;;684426;28;1059;-68
2024/01/07 00:31:01;;;;;;;10.40;5.93;;;;;;;;;;682612;28;2135;-67
2024/01/07 00:31:22;;;;;;;10.00;5.83;;;;;;;;;;685219;28;4408;-69
2024/01/07 00:31:42;;;;;;;10.18;5.70;;;;;;;;;;686758;28;1350;-69
2024/01/07 00:32:02;;;;;;;10.27;6.10;;;;;;;;;;685937;28;1768;-68
2024/01/07 00:32:23;;;;;;;9.95;5.57;;;;;;;;;;687206;28;1158;-69
2024/01/07 00:32:43;;;;;;;10.10;5.60;;;;;;;;;;687137;28;1079;-68
2024/01/07 00:33:03;;;;;;;10.23;6.32;;;;;;;;;;680490;28;4772;-67
2024/01/07 00:33:24;;;;;;;9.77;6.30;;;;;;;;;;681863;28;1135;-67
2024/01/07 00:33:45;;;;;;;10.47;6.20;;;;;;;;;;684512;28;1047;-69
2024/01/07 00:34:05;;;;;;;10.27;5.88;;;;;;;;;;683761;28;1714;-68
2024/01/07 00:34:26;;;;;;;10.00;5.78;;;;;;;;;;685440;28;4280;-71
2024/01/07 00:34:46;;;;;;;11.27;5.80;;;;;;;;;;689668;28;1288;-68
2024/01/07 00:35:07;;;;;;;11.97;6.47;;;;;;;;;;686366;28;1464;-70
2024/01/07 00:35:27;;;;;;;11.60;6.67;;;;;;;;;;687483;28;1420;-68
2024/01/07 00:35:47;;;;;;;10.23;6.13;;;;;;;;;;686975;28;1075;-69
2024/01/07 00:36:08;;;;;;;10.37;5.83;;;;;;;;;;686319;28;2492;-70
2024/01/07 00:36:28;;;;;;;10.57;5.80;;;;;;;;;;687535;28;1046;-68
2024/01/07 00:36:48;;;;;;;10.80;5.90;;;;;;;;;;687172;28;1934;-69
2024/01/07 00:37:08;;;;;;;10.80;5.70;;;;;;;;;;688724;28;2436;-69
2024/01/07 00:37:29;;;;;;;10.97;6.30;;;;;;;;;;684931;28;4208;-69
2024/01/07 00:37:49;;;;;;;10.67;6.33;;;;;;;;;;683463;28;2278;-67
2024/01/07 00:38:10;;;;;;;10.57;5.97;;;;;;;;;;684324;28;1506;-68
2024/01/07 00:38:30;;;;;;;10.20;6.03;;;;;;;;;;684554;28;1202;-68
2024/01/07 00:38:50;;;;;;;10.18;6.05;;;;;;;;;;682660;28;1826;-69
2024/01/07 00:39:11;;;;;;;10.30;6.10;;;;;;;;;;684436;28;1150;-69
2024/01/07 00:39:31;;;;;;;10.52;6.28;;;;;;;;;;684649;28;1376;-68
2024/01/07 00:39:52;;;;;;;11.43;6.00;;;;;;;;;;686119;28;1803;-68
2024/01/07 00:40:12;;;;;;;9.67;5.40;;;;;;;;;;687034;28;1284;-69
2024/01/07 00:40:32;;;;;;;10.00;5.82;;;;;;;;;;686355;28;4276;-68
2024/01/07 00:40:52;;;;;;;10.57;6.23;;;;;;;;;;683090;28;1815;-67
2024/01/07 00:41:13;;;;;;;9.93;6.07;;;;;;;;;;687032;28;1200;-68
2024/01/07 00:41:34;;;;;;;10.45;6.45;;;;;;;;;;681557;28;1270;-68
2024/01/07 00:41:54;;;;;;;10.60;6.50;;;;;;;;;;683744;28;2239;-68
2024/01/07 00:42:14;;;;;;;11.23;6.30;;;;;;;;;;681814;28;1203;-68
2024/01/07 00:42:35;;;;;;;10.10;6.05;;;;;;;;;;679345;29;905;-68
2024/01/07 00:42:55;;;;;;;9.47;5.83;;;;;;;;;;678029;29;1768;-69
2024/01/07 00:43:15;;;;;;;10.23;6.33;;;;;;;;;;678480;29;4354;-68
2024/01/07 00:43:35;;;;;;;11.68;6.82;;;;;;;;;;682009;28;1206;-68
2024/01/07 00:43:56;;;;;;;11.27;6.13;;;;;;;;;;681145;28;1889;-70
2024/01/07 00:44:16;;;;;;;10.98;6.07;;;;;;;;;;684331;28;1123;-69
2024/01/07 00:44:37;;;;;;;10.67;6.03;;;;;;;;;;687495;28;1316;-69
2024/01/07 00:44:57;;;;;;;9.77;6.00;;;;;;;;;;682142;28;1802;-67
2024/01/07 00:45:21;;;;;;;10.77;6.30;;;;;;;;;;681304;28;1252;-68
2024/01/07 00:45:41;;;;;;;10.40;6.13;;;;;;;;;;680904;29;1362;-69
2024/01/07 00:46:02;;;;;;;9.68;6.00;;;;;;;;;;681415;28;1802;-69
2024/01/07 00:46:22;;;;;;;9.23;5.80;;;;;;;;;;681328;28;4540;-68
2024/01/07 00:46:42;;;;;;;9.87;5.60;;;;;;;;;;681553;29;849;-68
2024/01/07 00:47:03;;;;;;;10.20;5.72;;;;;;;;;;686011;28;1698;-68
2024/01/07 00:47:25;;;;;;;9.67;5.37;;;;;;;;;;690261;28;1062;-67
2024/01/07 00:47:46;;;;;;;9.57;5.43;;;;;;;;;;692652;28;960;-67
2024/01/07 00:48:06;;;;;;;10.10;5.77;;;;;;;;;;686179;28;1771;-69
2024/01/07 00:48:27;;;;;;;10.10;5.38;;;;;;;;;;681946;28;1188;-69
2024/01/07 00:48:47;;;;;;;9.67;5.67;;;;;;;;;;683262;28;826;-68
2024/01/07 00:49:07;;;;;;;10.60;6.10;;;;;;;;;;680027;28;2391;-69
2024/01/07 00:49:27;;;;;;;10.00;5.57;;;;;;;;;;679813;28;4286;-67
2024/01/07 00:49:48;;;;;;;10.38;5.68;;;;;;;;;;680017;28;1404;-69
2024/01/07 00:50:08;;;;;;;10.23;6.13;;;;;;;;;;682336;28;2458;-68
2024/01/07 00:50:29;;;;;;;10.67;6.20;;;;;;;;;;686305;28;988;-70
2024/01/07 00:50:49;;;;;;;11.30;6.40;;;;;;;;;;685020;28;755;-68
2024/01/07 00:51:09;;;;;;;11.33;6.10;;;;;;;;;;680233;28;1630;-69
2024/01/07 00:51:30;;;;;;;10.27;5.70;;;;;;;;;;679844;29;1184;-69
2024/01/07 00:51:50;;;;;;;9.20;5.47;;;;;;;;;;679729;28;1958;-68
2024/01/07 00:52:10;;;;;;;9.37;5.73;;;;;;;;;;681993;29;1016;-67
2024/01/07 00:52:31;;;;;;;10.27;6.07;;;;;;;;;;683720;28;4271;-68
2024/01/07 00:52:51;;;;;;;9.97;5.77;;;;;;;;;;683870;28;1903;-69
2024/01/07 00:53:11;;;;;;;9.23;5.28;;;;;;;;;;684268;28;1224;-68
2024/01/07 00:53:32;;;;;;;9.67;5.43;;;;;;;;;;682043;28;731;-67
2024/01/07 00:53:52;;;;;;;9.60;5.67;;;;;;;;;;680882;28;2153;-69
2024/01/07 00:54:13;;;;;;;9.43;5.43;;;;;;;;;;683257;28;868;-69
2024/01/07 00:54:33;;;;;;;10.35;5.78;;;;;;;;;;683113;28;830;-68
2024/01/07 00:54:54;;;;;;;9.10;5.40;;;;;;;;;;682825;28;2080;-69
2024/01/07 00:55:14;;;;;;;10.40;5.93;;;;;;;;;;683757;28;4553;-68
2024/01/07 00:55:37;;;;;;;10.15;6.47;;;;;;;;;;685517;28;750;-69
2024/01/07 00:56:09;;;;;;;9.52;5.85;;;;;;;;;;682426;28;1978;-69
2024/01/07 00:56:30;;;;;;;10.50;6.20;;;;;;;;;;684379;28;1253;-68
2024/01/07 00:56:50;;;;;;;9.52;5.78;;;;;;;;;;684187;28;1968;-68
2024/01/07 00:57:12;;;;;;;10.03;6.20;;;;;;;;;;686599;28;791;-69
2024/01/07 00:57:32;;;;;;;10.27;5.75;;;;;;;;;;687277;28;821;-70
2024/01/07 00:57:53;;;;;;;9.48;5.63;;;;;;;;;;686237;28;1868;-68
2024/01/07 00:58:13;;;;;;;9.87;5.87;;;;;;;;;;686666;28;4559;-68
2024/01/07 00:58:33;;;;;;;9.63;5.73;;;;;;;;;;687882;28;826;-70
2024/01/07 00:58:53;;;;;;;9.67;6.17;;;;;;;;;;688738;28;1779;-69
2024/01/07 00:59:14;;;;;;;10.63;6.40;;;;;;;;;;687044;28;1547;-68
2024/01/07 00:59:34;;;;;;;9.87;6.00;;;;;;;;;;686775;28;976;-70
2024/01/07 00:59:54;;;;;;;11.07;6.60;;;;;;;;;;686982;28;2334;-70
2024/01/07 01:00:15;;;;;;;10.47;6.23;;;;;;;;;;682621;28;797;-69
2024/01/07 01:00:35;;;;;;;10.68;6.28;;;;;;;;;;683454;28;1118;-68
2024/01/07 01:00:55;;;;;;;10.23;6.03;;;;;;;;;;685964;28;1802;-69
2024/01/07 01:01:15;;;;;;;10.20;5.93;;;;;;;;;;681464;28;4280;-69
2024/01/07 01:01:36;;;;;;;9.70;6.10;;;;;;;;;;684116;28;866;-69
2024/01/07 01:01:56;;;;;;;9.73;5.80;;;;;;;;;;683669;28;1443;-70
2024/01/07 01:02:16;;;;;;;11.10;6.03;;;;;;;;;;684348;28;916;-69
2024/01/07 01:02:37;;;;;;;10.07;6.15;;;;;;;;;;682062;28;1502;-68
2024/01/07 01:02:58;;;;;;;10.37;6.20;;;;;;;;;;683855;28;1467;-69
2024/01/07 01:03:18;;;;;;;9.95;6.10;;;;;;;;;;687237;28;1058;-70
2024/01/07 01:03:38;;;;;;;10.38;6.40;;;;;;;;;;684468;28;1693;-69
2024/01/07 01:03:59;;;;;;;9.87;5.90;;;;;;;;;;686662;28;1592;-68
2024/01/07 01:04:19;;;;;;;9.68;5.90;;;;;;;;;;688156;28;4244;-69
2024/01/07 01:04:40;;;;;;;9.68;6.05;;;;;;;;;;688021;28;1212;-69
2024/01/07 01:05:01;;;;;;;12.27;6.57;;;;;;;;;;686715;28;1468;-68
2024/01/07 01:05:21;;;;;;;10.77;6.20;;;;;;;;;;689765;28;895;-68
2024/01/07 01:05:41;;;;;;;9.87;5.83;;;;;;;;;;689589;28;778;-70
2024/01/07 01:06:02;;;;;;;10.60;6.00;;;;;;;;;;683588;28;1187;-70
2024/01/07 01:06:22;;;;;;;11.37;6.60;;;;;;;;;;684300;28;955;-70
2024/01/07 01:06:42;;;;;;;10.07;6.07;;;;;;;;;;684798;28;824;-69
2024/01/07 01:07:03;;;;;;;9.40;5.78;;;;;;;;;;683695;28;1743;-68
2024/01/07 01:07:23;;;;;;;9.10;5.57;;;;;;;;;;683962;28;4516;-69
2024/01/07 01:07:43;;;;;;;10.00;5.97;;;;;;;;;;682464;28;1489;-69
2024/01/07 01:08:04;;;;;;;10.02;5.97;;;;;;;;;;682504;28;2069;-69
2024/01/07 01:08:24;;;;;;;9.53;5.57;;;;;;;;;;681781;28;1361;-68
2024/01/07 01:08:44;;;;;;;9.60;5.68;;;;;;;;;;682123;28;881;-68
2024/01/07 01:09:05;;;;;;;9.60;5.80;;;;;;;;;;682530;28;2141;-67
2024/01/07 01:09:27;;;;;;;9.40;5.47;;;;;;;;;;682082;28;788;-69
2024/01/07 01:09:47;;;;;;;9.23;5.72;;;;;;;;;;685440;28;1004;-69
2024/01/07 01:10:08;;;;;;;9.30;5.90;;;;;;;;;;683660;28;1878;-70
2024/01/07 01:10:28;;;;;;;10.50;6.20;;;;;;;;;;686574;28;4454;-68
2024/01/07 01:10:49;;;;;;;10.77;6.38;;;;;;;;;;684579;28;1192;-69
2024/01/07 01:11:10;;;;;;;10.40;5.97;;;;;;;;;;680715;28;1838;-68
2024/01/07 01:11:30;;;;;;;11.30;6.03;;;;;;;;;;678382;28;1216;-69
2024/01/07 01:11:50;;;;;;;11.63;6.60;;;;;;;;;;681566;29;936;-69
2024/01/07 01:12:11;;;;;;;10.75;6.35;;;;;;;;;;678448;29;1702;-69
2024/01/07 01:12:31;;;;;;;11.23;6.07;;;;;;;;;;681819;28;1153;-68
2024/01/07 01:12:54;;;;;;;10.90;6.43;;;;;;;;;;684403;28;869;-68
2024/01/07 01:13:14;;;;;;;10.02;6.40;;;;;;;;;;686974;28;4301;-68
2024/01/07 01:13:34;;;;;;;9.23;6.10;;;;;;;;;;686787;28;1319;-69
2024/01/07 01:13:54;;;;;;;10.52;6.35;;;;;;;;;;683389;28;1497;-70
2024/01/07 01:14:15;;;;;;;10.77;6.47;;;;;;;;;;681863;29;878;-70
2024/01/07 01:14:35;;;;;;;11.57;6.63;;;;;;;;;;681922;29;936;-68
2024/01/07 01:14:55;;;;;;;11.23;6.47;;;;;;;;;;674853;29;1495;-68
2024/01/07 01:15:18;;;;;;;10.23;6.23;;;;;;;;;;676277;29;1204;-69
2024/01/07 01:15:39;;;;;;;9.82;6.22;;;;;;;;;;677170;29;1249;-69
2024/01/07 01:15:59;;;;;;;10.00;6.10;;;;;;;;;;678419;29;1720;-68
2024/01/07 01:16:19;;;;;;;11.40;6.93;;;;;;;;;;681873;28;4250;-68
2024/01/07 01:16:40;;;;;;;11.10;6.57;;;;;;;;;;684501;28;1918;-68
2024/01/07 01:17:00;;;;;;;11.60;6.43;;;;;;;;;;682784;28;3819;-69
2024/01/07 01:17:21;;;;;;;11.65;6.97;;;;;;;;;;686858;28;853;-69
2024/01/07 01:17:41;;;;;;;12.53;7.47;;;;;;;;;;687221;28;927;-70
2024/01/07 01:18:01;;;;;;;12.03;7.03;;;;;;;;;;685407;28;1672;-69
2024/01/07 01:18:22;;;;;;;12.00;7.00;;;;;;;;;;687086;28;865;-69
2024/01/07 01:18:42;;;;;;;12.10;6.97;;;;;;;;;;687330;28;877;-68
2024/01/07 01:19:02;;;;;;;11.77;6.60;;;;;;;;;;682731;28;1796;-70
2024/01/07 01:19:23;;;;;;;12.67;6.73;;;;;;;;;;684398;28;4450;-69
2024/01/07 01:19:44;;;;;;;12.27;7.15;;;;;;;;;;684703;28;829;-69
2024/01/07 01:20:05;;;;;;;11.70;7.00;;;;;;;;;;681162;28;1771;-69
2024/01/07 01:20:25;;;;;;;12.20;6.72;;;;;;;;;;684311;28;884;-69
2024/01/07 01:20:46;;;;;;;11.80;6.57;;;;;;;;;;685110;28;911;-69
2024/01/07 01:21:07;;;;;;;12.55;6.80;;;;;;;;;;682559;28;1296;-68
2024/01/07 01:21:27;;;;;;;11.00;6.55;;;;;;;;;;684892;28;1010;-68
2024/01/07 01:21:48;;;;;;;10.17;6.50;;;;;;;;;;684318;28;3614;-70
2024/01/07 01:22:08;;;;;;;11.30;6.70;;;;;;;;;;686311;28;1560;-67
2024/01/07 01:22:28;;;;;;;11.67;7.00;;;;;;;;;;681758;28;4270;-68
2024/01/07 01:22:48;;;;;;;12.17;7.60;;;;;;;;;;682175;28;1154;-68
2024/01/07 01:23:08;;;;;;;11.73;7.00;;;;;;;;;;683063;28;931;-69
2024/01/07 01:23:30;;;;;;;11.98;6.90;;;;;;;;;;684560;28;1174;-70
2024/01/07 01:23:51;;;;;;;12.63;7.13;;;;;;;;;;681833;29;1747;-69
2024/01/07 01:24:12;;;;;;;12.18;6.63;;;;;;;;;;681275;28;1169;-68
2024/01/07 01:24:35;;;;;;;11.13;6.57;;;;;;;;;;681607;29;861;-69
2024/01/07 01:24:56;;;;;;;11.25;6.60;;;;;;;;;;683543;28;1203;-68
2024/01/07 01:25:16;;;;;;;11.80;6.53;;;;;;;;;;679949;28;4316;-69
2024/01/07 01:25:36;;;;;;;12.10;6.90;;;;;;;;;;682342;28;1143;-70
2024/01/07 01:25:57;;;;;;;11.37;6.67;;;;;;;;;;685848;28;998;-69
2024/01/07 01:26:17;;;;;;;11.07;6.55;;;;;;;;;;686988;28;900;-68
2024/01/07 01:26:39;;;;;;;11.57;7.17;;;;;;;;;;684128;28;1180;-69
2024/01/07 01:26:59;;;;;;;11.45;6.80;;;;;;;;;;685187;28;1030;-68
2024/01/07 01:27:20;;;;;;;12.05;6.60;;;;;;;;;;688589;28;845;-69
2024/01/07 01:27:40;;;;;;;12.57;6.83;;;;;;;;;;684385;28;1158;-70
2024/01/07 01:28:00;;;;;;;13.73;7.87;;;;;;;;;;682891;28;1058;-68
2024/01/07 01:28:21;;;;;;;12.60;7.70;;;;;;;;;;682374;28;4368;-69
2024/01/07 01:28:41;;;;;;;13.13;7.43;;;;;;;;;;680708;28;1501;-69
2024/01/07 01:29:01;;;;;;;12.37;7.20;;;;;;;;;;680129;28;962;-70
2024/01/07 01:29:21;;;;;;;12.10;7.20;;;;;;;;;;681816;28;963;-70
2024/01/07 01:29:42;;;;;;;12.30;7.20;;;;;;;;;;681352;28;857;-70
2024/01/07 01:30:02;;;;;;;12.83;7.63;;;;;;;;;;677987;29;1460;-69
2024/01/07 01:30:23;;;;;;;13.68;7.90;;;;;;;;;;679502;28;1120;-69
2024/01/07 01:30:43;;;;;;;12.73;7.63;;;;;;;;;;682290;28;819;-68
2024/01/07 01:31:03;;;;;;;13.17;7.40;;;;;;;;;;680623;28;1338;-69
2024/01/07 01:31:23;;;;;;;13.40;7.43;;;;;;;;;;682681;28;5078;-71
2024/01/07 01:31:44;;;;;;;13.02;7.32;;;;;;;;;;684476;28;920;-69
2024/01/07 01:32:04;;;;;;;13.60;8.00;;;;;;;;;;683786;28;938;-68
2024/01/07 01:32:24;;;;;;;14.07;8.10;;;;;;;;;;681121;28;1496;-69
2024/01/07 01:32:45;;;;;;;13.25;8.13;;;;;;;;;;676228;29;1210;-68
2024/01/07 01:33:05;;;;;;;12.10;7.20;;;;;;;;;;675379;29;9148;-69
2024/01/07 01:33:26;;;;;;;13.15;7.20;;;;;;;;;;676879;29;972;-68
2024/01/07 01:33:46;;;;;;;13.27;7.43;;;;;;;;;;679010;29;881;-69
2024/01/07 01:34:06;;;;;;;14.80;8.37;;;;;;;;;;678132;28;906;-69
2024/01/07 01:34:26;;;;;;;14.43;8.07;;;;;;;;;;682933;28;4296;-70
2024/01/07 01:34:47;;;;;;;13.97;7.80;;;;;;;;;;681690;29;1209;-68
2024/01/07 01:35:07;;;;;;;14.27;7.63;;;;;;;;;;685437;28;1487;-69
2024/01/07 01:35:27;;;;;;;14.50;7.80;;;;;;;;;;686538;28;1415;-69
2024/01/07 01:35:48;;;;;;;13.50;7.83;;;;;;;;;;686807;28;812;-68
2024/01/07 01:36:08;;;;;;;14.50;7.80;;;;;;;;;;684985;28;1510;-69
2024/01/07 01:36:30;;;;;;;15.10;8.00;;;;;;;;;;687927;28;1209;-68
2024/01/07 01:36:50;;;;;;;14.38;7.88;;;;;;;;;;687649;28;1977;-69
2024/01/07 01:37:11;;;;;;;14.55;7.95;;;;;;;;;;685874;28;1276;-68
2024/01/07 01:37:32;;;;;;;14.40;8.03;;;;;;;;;;685312;28;4260;-69
2024/01/07 01:37:54;;;;;;;14.80;8.40;;;;;;;;;;683296;28;936;-69
2024/01/07 01:38:14;;;;;;;14.15;7.95;;;;;;;;;;686072;28;903;-68
2024/01/07 01:38:34;;;;;;;14.53;8.00;;;;;;;;;;684441;28;912;-68
2024/01/07 01:38:55;;;;;;;14.60;7.93;;;;;;;;;;684611;28;1172;-68
2024/01/07 01:39:15;;;;;;;13.03;7.53;;;;;;;;;;685653;28;1311;-68
2024/01/07 01:39:36;;;;;;;13.45;7.95;;;;;;;;;;684870;28;1471;-68
2024/01/07 01:39:56;;;;;;;13.70;7.32;;;;;;;;;;686183;28;1488;-69
2024/01/07 01:40:17;;;;;;;14.43;8.03;;;;;;;;;;685151;28;4370;-69
2024/01/07 01:40:37;;;;;;;14.23;8.23;;;;;;;;;;682759;28;991;-69
2024/01/07 01:40:57;;;;;;;13.87;7.97;;;;;;;;;;681728;28;1137;-69
2024/01/07 01:41:18;;;;;;;13.30;7.97;;;;;;;;;;682295;28;809;-68
2024/01/07 01:41:38;;;;;;;15.17;7.77;;;;;;;;;;681408;29;838;-69
2024/01/07 01:41:58;;;;;;;14.67;8.30;;;;;;;;;;677039;29;947;-69
2024/01/07 01:42:19;;;;;;;14.85;8.45;;;;;;;;;;680298;29;834;-68
2024/01/07 01:42:42;;;;;;;15.23;8.40;;;;;;;;;;680183;29;797;-68
2024/01/07 01:43:03;;;;;;;16.25;8.88;;;;;;;;;;680686;28;977;-68
2024/01/07 01:43:26;;;;;;;16.00;8.50;;;;;;;;;;682905;28;4316;-68
2024/01/07 01:43:47;;;;;;;14.13;8.02;;;;;;;;;;684420;28;1366;-69
2024/01/07 01:44:07;;;;;;;16.37;8.53;;;;;;;;;;683621;28;981;-70
2024/01/07 01:44:27;;;;;;;15.68;8.07;;;;;;;;;;684449;28;1137;-69
2024/01/07 01:44:48;;;;;;;15.37;8.50;;;;;;;;;;684713;28;893;-69
2024/01/07 01:45:08;;;;;;;16.27;8.73;;;;;;;;;;683556;28;1051;-69
2024/01/07 01:45:28;;;;;;;14.37;8.63;;;;;;;;;;684120;28;861;-69
2024/01/07 01:45:49;;;;;;;13.63;8.17;;;;;;;;;;687351;28;805;-69
2024/01/07 01:46:09;;;;;;;15.68;8.90;;;;;;;;;;686181;28;902;-69
2024/01/07 01:46:29;;;;;;;16.73;8.93;;;;;;;;;;684789;28;4290;-68
2024/01/07 01:46:50;;;;;;;16.23;8.87;;;;;;;;;;684997;28;695;-71
2024/01/07 01:47:10;;;;;;;15.68;8.68;;;;;;;;;;683744;28;1051;-69
2024/01/07 01:47:31;;;;;;;15.73;8.70;;;;;;;;;;686051;28;932;-68
2024/01/07 01:47:51;;;;;;;15.73;8.88;;;;;;;;;;689727;28;1162;-69
2024/01/07 01:48:11;;;;;;;17.07;9.20;;;;;;;;;;686936;28;1116;-70
2024/01/07 01:48:32;;;;;;;15.85;9.15;;;;;;;;;;689713;28;919;-69
2024/01/07 01:48:52;;;;;;;14.20;8.87;;;;;;;;;;689587;28;1537;-68
2024/01/07 01:49:13;;;;;;;14.32;8.35;;;;;;;;;;686229;28;4318;-68
2024/01/07 01:49:35;;;;;;;15.40;8.37;;;;;;;;;;686816;28;1181;-69
2024/01/07 01:49:55;;;;;;;15.60;9.10;;;;;;;;;;684626;28;1022;-70
2024/01/07 01:50:17;;;;;;;15.70;9.37;;;;;;;;;;683120;28;955;-69
2024/01/07 01:50:38;;;;;;;16.48;9.13;;;;;;;;;;681917;28;1425;-68
2024/01/07 01:50:58;;;;;;;16.00;8.63;;;;;;;;;;679224;28;1362;-69
2024/01/07 01:51:19;;;;;;;15.60;8.77;;;;;;;;;;678587;29;1294;-69
2024/01/07 01:51:39;;;;;;;16.20;8.95;;;;;;;;;;673516;29;755;-69
2024/01/07 01:51:59;;;;;;;15.83;9.10;;;;;;;;;;673471;29;953;-68
2024/01/07 01:52:20;;;;;;;16.35;8.93;;;;;;;;;;676088;29;4375;-69
2024/01/07 01:52:40;;;;;;;14.83;8.37;;;;;;;;;;676522;29;1130;-69
2024/01/07 01:53:01;;;;;;;14.45;8.93;;;;;;;;;;681109;28;1375;-70
2024/01/07 01:53:21;;;;;;;15.73;9.10;;;;;;;;;;682352;28;1152;-69
2024/01/07 01:53:42;;;;;;;14.88;9.18;;;;;;;;;;683700;28;881;-70
2024/01/07 01:54:02;;;;;;;15.27;9.53;;;;;;;;;;683057;28;1037;-69
2024/01/07 01:54:23;;;;;;;15.43;9.47;;;;;;;;;;681907;29;1244;-70
2024/01/07 01:54:44;;;;;;;15.30;9.63;;;;;;;;;;681152;28;920;-69
2024/01/07 01:55:04;;;;;;;16.00;9.40;;;;;;;;;;678403;29;948;-69
2024/01/07 01:55:25;;;;;;;16.80;9.30;;;;;;;;;;678841;28;4429;-68
2024/01/07 01:55:45;;;;;;;15.65;9.27;;;;;;;;;;679016;29;810;-68
2024/01/07 01:56:06;;;;;;;15.50;9.20;;;;;;;;;;678532;29;1161;-69
2024/01/07 01:56:27;;;;;;;16.17;9.40;;;;;;;;;;684468;28;1346;-69
2024/01/07 01:56:48;;;;;;;16.95;9.70;;;;;;;;;;683467;28;1949;-70
2024/01/07 01:57:11;;;;;;;18.42;10.18;;;;;;;;;;681165;28;1481;-68
2024/01/07 01:57:37;;;;;;;16.08;9.52;;;;;;;;;;677958;29;1092;-69
2024/01/07 01:57:59;;;;;;;18.02;10.35;;;;;;;;;;677718;29;1169;-69
2024/01/07 01:58:20;;;;;;;17.15;9.82;;;;;;;;;;679379;29;4323;-70
2024/01/07 01:58:40;;;;;;;17.40;10.27;;;;;;;;;;681729;29;1348;-70
2024/01/07 01:59:01;;;;;;;17.60;9.80;;;;;;;;;;680354;28;1052;-69
2024/01/07 01:59:21;;;;;;;17.67;9.83;;;;;;;;;;678457;29;1198;-69
2024/01/07 01:59:42;;;;;;;15.57;9.70;;;;;;;;;;679149;29;923;-68
2024/01/07 02:00:04;;;;;;;15.93;9.82;;;;;;;;;;677692;29;1157;-68
2024/01/07 02:00:26;;;;;;;16.90;9.70;;;;;;;;;;680330;28;735;-69
2024/01/07 02:00:47;;;;;;;17.48;9.85;;;;;;;;;;686783;28;1337;-69
2024/01/07 02:01:07;;;;;;;18.70;10.45;;;;;;;;;;684845;28;1080;-69
2024/01/07 02:01:28;;;;;;;16.73;10.00;;;;;;;;;;689375;28;4330;-69
2024/01/07 02:01:48;;;;;;;17.48;10.13;;;;;;;;;;689341;28;789;-68
2024/01/07 02:02:08;;;;;;;17.87;10.37;;;;;;;;;;685531;28;1282;-70
2024/01/07 02:02:31;;;;;;;16.67;10.38;;;;;;;;;;687209;28;824;-68
2024/01/07 02:02:51;;;;;;;16.95;9.77;;;;;;;;;;687843;28;1025;-69
2024/01/07 02:03:11;;;;;;;18.37;10.20;;;;;;;;;;688415;28;1111;-69
2024/01/07 02:03:31;;;;;;;18.07;10.00;;;;;;;;;;684226;28;1319;-68
2024/01/07 02:03:53;;;;;;;16.17;10.27;;;;;;;;;;681793;28;1462;-68
2024/01/07 02:04:14;;;;;;;17.30;10.65;;;;;;;;;;682042;28;4370;-68
2024/01/07 02:04:34;;;;;;;16.60;10.00;;;;;;;;;;684507;28;933;-69
2024/01/07 02:04:55;;;;;;;18.17;10.67;;;;;;;;;;681074;28;1217;-69
2024/01/07 02:05:15;;;;;;;17.27;10.32;;;;;;;;;;677200;29;1669;-68
2024/01/07 02:05:36;;;;;;;16.43;9.87;;;;;;;;;;677005;29;1182;-69
2024/01/07 02:05:57;;;;;;;16.25;10.07;;;;;;;;;;675807;29;1101;-69
2024/01/07 02:06:18;;;;;;;17.13;10.27;;;;;;;;;;673808;29;945;-70